sensor_id;sensor_type;location;lat;lon;timestamp;pressure;altitude;pressure_sealevel;temperature;humidity
32733;BME280;11867;51.198;11.966;2023-04-01T00:00:09;98655.75;;;12.02;85.57
32733;BME280;11867;51.198;11.966;2023-04-01T00:01:13;98653.34;;;12.00;85.73
32733;BME280;11867;51.198;11.966;2023-04-01T00:02:16;98656.81;;;12.09;85.56
32733;BME280;11867;51.198;11.966;2023-04-01T00:03:19;98652.00;;;12.06;85.40
32733;BME280;11867;51.198;11.966;2023-04-01T00:04:22;98650.94;;;11.99;85.92
32733;BME280;11867;51.198;11.966;2023-04-01T00:05:25;98648.41;;;12.15;85.53
32733;BME280;11867;51.198;11.966;2023-04-01T00:06:27;98636.53;;;11.89;85.48
32733;BME280;11867;51.198;11.966;2023-04-01T00:07:30;98647.06;;;12.00;85.97
32733;BME280;11867;51.198;11.966;2023-04-01T00:08:32;98649.13;;;12.03;85.71
32733;BME280;11867;51.198;11.966;2023-04-01T00:09:35;98642.94;;;11.94;86.34
32733;BME280;11867;51.198;11.966;2023-04-01T00:10:36;98647.34;;;12.07;85.76
32733;BME280;11867;51.198;11.966;2023-04-01T00:11:39;98655.03;;;12.14;85.45
32733;BME280;11867;51.198;11.966;2023-04-01T00:12:41;98658.84;;;11.91;85.08
32733;BME280;11867;51.198;11.966;2023-04-01T00:13:44;98652.84;;;11.68;86.74
32733;BME280;11867;51.198;11.966;2023-04-01T00:14:46;98654.34;;;11.57;86.96
32733;BME280;11867;51.198;11.966;2023-04-01T00:15:48;98649.97;;;11.65;87.20
32733;BME280;11867;51.198;11.966;2023-04-01T00:16:50;98656.38;;;11.69;86.84
32733;BME280;11867;51.198;11.966;2023-04-01T00:17:53;98656.09;;;11.62;87.23
32733;BME280;11867;51.198;11.966;2023-04-01T00:18:57;98651.22;;;11.76;87.00
32733;BME280;11867;51.198;11.966;2023-04-01T00:20:01;98644.53;;;11.65;87.08
32733;BME280;11867;51.198;11.966;2023-04-01T00:21:04;98648.03;;;11.65;87.14
32733;BME280;11867;51.198;11.966;2023-04-01T00:22:07;98648.38;;;11.25;88.08
32733;BME280;11867;51.198;11.966;2023-04-01T00:23:12;98647.78;;;11.11;89.60
32733;BME280;11867;51.198;11.966;2023-04-01T00:24:15;98646.75;;;11.33;89.21
32733;BME280;11867;51.198;11.966;2023-04-01T00:25:17;98643.72;;;11.26;89.00
32733;BME280;11867;51.198;11.966;2023-04-01T00:26:20;98642.81;;;11.13;89.36
32733;BME280;11867;51.198;11.966;2023-04-01T00:27:23;98647.13;;;11.23;89.62
32733;BME280;11867;51.198;11.966;2023-04-01T00:28:26;98645.81;;;11.29;89.01
32733;BME280;11867;51.198;11.966;2023-04-01T00:29:28;98647.00;;;11.10;90.03
32733;BME280;11867;51.198;11.966;2023-04-01T00:30:31;98643.09;;;11.29;89.34
32733;BME280;11867;51.198;11.966;2023-04-01T00:31:33;98648.19;;;10.83;91.04
32733;BME280;11867;51.198;11.966;2023-04-01T00:32:36;98644.78;;;10.95;91.10
32733;BME280;11867;51.198;11.966;2023-04-01T00:33:38;98645.22;;;11.15;90.06
32733;BME280;11867;51.198;11.966;2023-04-01T00:34:42;98640.16;;;11.34;89.58
32733;BME280;11867;51.198;11.966;2023-04-01T00:35:46;98638.84;;;11.40;88.53
32733;BME280;11867;51.198;11.966;2023-04-01T00:36:48;98643.78;;;11.56;88.21
32733;BME280;11867;51.198;11.966;2023-04-01T00:37:50;98647.03;;;11.40;87.91
32733;BME280;11867;51.198;11.966;2023-04-01T00:38:53;98636.53;;;11.21;88.27
32733;BME280;11867;51.198;11.966;2023-04-01T00:39:54;98636.59;;;10.95;89.59
32733;BME280;11867;51.198;11.966;2023-04-01T00:40:57;98637.41;;;10.96;90.38
32733;BME280;11867;51.198;11.966;2023-04-01T00:42:00;98636.59;;;11.04;90.37
32733;BME280;11867;51.198;11.966;2023-04-01T00:43:10;98641.69;;;11.05;90.11
32733;BME280;11867;51.198;11.966;2023-04-01T00:44:16;98644.31;;;10.84;90.58
32733;BME280;11867;51.198;11.966;2023-04-01T00:45:28;98644.69;;;10.65;91.72
32733;BME280;11867;51.198;11.966;2023-04-01T00:46:31;98636.81;;;10.73;91.52
32733;BME280;11867;51.198;11.966;2023-04-01T00:47:33;98637.41;;;10.87;91.17
32733;BME280;11867;51.198;11.966;2023-04-01T00:48:36;98629.88;;;10.93;90.53
32733;BME280;11867;51.198;11.966;2023-04-01T00:49:44;98638.06;;;10.93;90.13
32733;BME280;11867;51.198;11.966;2023-04-01T00:50:50;98635.34;;;10.84;90.58
32733;BME280;11867;51.198;11.966;2023-04-01T00:51:55;98640.97;;;10.79;91.11
32733;BME280;11867;51.198;11.966;2023-04-01T00:53:01;98636.31;;;10.70;91.35
32733;BME280;11867;51.198;11.966;2023-04-01T00:54:05;98635.66;;;10.82;91.09
32733;BME280;11867;51.198;11.966;2023-04-01T00:55:09;98636.47;;;10.83;90.67
32733;BME280;11867;51.198;11.966;2023-04-01T00:56:16;98630.72;;;10.76;91.21
32733;BME280;11867;51.198;11.966;2023-04-01T00:57:23;98617.72;;;10.73;90.71
32733;BME280;11867;51.198;11.966;2023-04-01T00:58:29;98640.97;;;10.87;90.39
32733;BME280;11867;51.198;11.966;2023-04-01T00:59:34;98638.66;;;11.07;89.60
32733;BME280;11867;51.198;11.966;2023-04-01T01:00:37;98637.53;;;10.99;89.80
32733;BME280;11867;51.198;11.966;2023-04-01T01:01:40;98640.75;;;11.01;89.41
32733;BME280;11867;51.198;11.966;2023-04-01T01:02:44;98645.56;;;11.04;88.93
32733;BME280;11867;51.198;11.966;2023-04-01T01:03:47;98634.88;;;10.64;90.01
32733;BME280;11867;51.198;11.966;2023-04-01T01:04:50;98633.44;;;10.58;91.07
32733;BME280;11867;51.198;11.966;2023-04-01T01:06:06;98631.69;;;10.71;90.04
32733;BME280;11867;51.198;11.966;2023-04-01T01:07:18;98641.59;;;10.84;89.59
32733;BME280;11867;51.198;11.966;2023-04-01T01:08:29;98638.38;;;11.00;88.86
32733;BME280;11867;51.198;11.966;2023-04-01T01:09:43;98639.00;;;10.97;88.46
32733;BME280;11867;51.198;11.966;2023-04-01T01:10:49;98637.88;;;10.89;88.84
32733;BME280;11867;51.198;11.966;2023-04-01T01:11:54;98637.19;;;11.09;88.62
32733;BME280;11867;51.198;11.966;2023-04-01T01:13:05;98633.28;;;11.28;87.56
32733;BME280;11867;51.198;11.966;2023-04-01T01:14:12;98641.56;;;10.93;88.17
32733;BME280;11867;51.198;11.966;2023-04-01T01:15:21;98639.16;;;11.00;88.58
32733;BME280;11867;51.198;11.966;2023-04-01T01:16:28;98647.00;;;11.10;88.05
32733;BME280;11867;51.198;11.966;2023-04-01T01:17:42;98641.16;;;11.29;87.48
32733;BME280;11867;51.198;11.966;2023-04-01T01:18:50;98642.25;;;11.28;87.10
32733;BME280;11867;51.198;11.966;2023-04-01T01:20:27;98646.53;;;11.47;86.46
32733;BME280;11867;51.198;11.966;2023-04-01T01:21:46;98646.03;;;11.54;85.52
32733;BME280;11867;51.198;11.966;2023-04-01T01:22:57;98643.09;;;11.29;85.94
32733;BME280;11867;51.198;11.966;2023-04-01T01:25:56;98640.59;;;11.06;87.90
32733;BME280;11867;51.198;11.966;2023-04-01T01:27:00;98642.25;;;11.28;87.18
32733;BME280;11867;51.198;11.966;2023-04-01T01:28:19;98635.06;;;11.24;87.09
32733;BME280;11867;51.198;11.966;2023-04-01T01:30:59;98638.16;;;11.14;86.87
32733;BME280;11867;51.198;11.966;2023-04-01T01:32:07;98632.63;;;10.66;88.90
32733;BME280;11867;51.198;11.966;2023-04-01T01:33:35;98636.66;;;10.60;90.09
32733;BME280;11867;51.198;11.966;2023-04-01T01:34:47;98633.75;;;10.74;89.65
32733;BME280;11867;51.198;11.966;2023-04-01T01:35:57;98630.84;;;10.88;89.11
32733;BME280;11867;51.198;11.966;2023-04-01T01:37:05;98632.94;;;10.82;88.80
32733;BME280;11867;51.198;11.966;2023-04-01T01:38:13;98634.41;;;10.62;89.93
32733;BME280;11867;51.198;11.966;2023-04-01T01:39:17;98628.94;;;10.62;90.29
32733;BME280;11867;51.198;11.966;2023-04-01T01:40:20;98632.38;;;10.42;90.78
32733;BME280;11867;51.198;11.966;2023-04-01T01:41:25;98623.50;;;10.62;90.46
32733;BME280;11867;51.198;11.966;2023-04-01T01:42:29;98625.13;;;10.63;90.07
32733;BME280;11867;51.198;11.966;2023-04-01T01:43:37;98628.00;;;10.58;90.48
32733;BME280;11867;51.198;11.966;2023-04-01T01:44:42;98634.59;;;10.57;90.71
32733;BME280;11867;51.198;11.966;2023-04-01T01:45:49;98634.59;;;10.48;91.00
32733;BME280;11867;51.198;11.966;2023-04-01T01:46:52;98641.63;;;10.67;90.63
32733;BME280;11867;51.198;11.966;2023-04-01T01:47:55;98631.00;;;10.83;89.71
32733;BME280;11867;51.198;11.966;2023-04-01T01:49:00;98631.13;;;11.04;88.99
32733;BME280;11867;51.198;11.966;2023-04-01T01:50:03;98632.56;;;11.10;88.33
32733;BME280;11867;51.198;11.966;2023-04-01T01:51:08;98629.41;;;10.90;88.45
32733;BME280;11867;51.198;11.966;2023-04-01T01:52:12;98631.97;;;10.96;88.28
32733;BME280;11867;51.198;11.966;2023-04-01T01:53:14;98630.63;;;11.10;87.79
32733;BME280;11867;51.198;11.966;2023-04-01T01:54:17;98634.00;;;11.07;87.83
32733;BME280;11867;51.198;11.966;2023-04-01T01:55:25;98635.47;;;10.96;88.46
32733;BME280;11867;51.198;11.966;2023-04-01T01:56:29;98638.69;;;10.98;88.24
32733;BME280;11867;51.198;11.966;2023-04-01T01:57:34;98629.50;;;11.11;87.88
32733;BME280;11867;51.198;11.966;2023-04-01T01:58:40;98640.56;;;11.15;87.46
32733;BME280;11867;51.198;11.966;2023-04-01T01:59:45;98634.13;;;11.20;87.53
32733;BME280;11867;51.198;11.966;2023-04-01T02:00:51;98638.97;;;11.14;87.40
32733;BME280;11867;51.198;11.966;2023-04-01T02:01:56;98632.66;;;11.31;86.72
32733;BME280;11867;51.198;11.966;2023-04-01T02:02:58;98636.47;;;11.30;86.68
32733;BME280;11867;51.198;11.966;2023-04-01T02:04:02;98640.94;;;11.43;86.03
32733;BME280;11867;51.198;11.966;2023-04-01T02:05:05;98642.84;;;11.43;85.96
32733;BME280;11867;51.198;11.966;2023-04-01T02:06:10;98637.31;;;11.60;85.31
32733;BME280;11867;51.198;11.966;2023-04-01T02:07:16;98637.75;;;11.71;85.01
32733;BME280;11867;51.198;11.966;2023-04-01T02:08:25;98638.91;;;11.61;84.70
32733;BME280;11867;51.198;11.966;2023-04-01T02:09:27;98639.53;;;11.37;85.58
32733;BME280;11867;51.198;11.966;2023-04-01T02:10:35;98643.94;;;11.50;85.79
32733;BME280;11867;51.198;11.966;2023-04-01T02:11:40;98638.31;;;11.56;85.40
32733;BME280;11867;51.198;11.966;2023-04-01T02:12:46;98644.34;;;11.70;85.08
32733;BME280;11867;51.198;11.966;2023-04-01T02:13:52;98641.69;;;11.82;84.48
32733;BME280;11867;51.198;11.966;2023-04-01T02:15:01;98635.56;;;11.85;84.47
32733;BME280;11867;51.198;11.966;2023-04-01T02:16:08;98639.16;;;11.77;84.01
32733;BME280;11867;51.198;11.966;2023-04-01T02:17:14;98639.06;;;11.65;84.59
32733;BME280;11867;51.198;11.966;2023-04-01T02:18:18;98642.59;;;11.65;84.84
32733;BME280;11867;51.198;11.966;2023-04-01T02:19:24;98639.47;;;11.46;85.50
32733;BME280;11867;51.198;11.966;2023-04-01T02:20:28;98634.28;;;11.53;85.18
32733;BME280;11867;51.198;11.966;2023-04-01T02:21:34;98638.50;;;11.50;85.10
32733;BME280;11867;51.198;11.966;2023-04-01T02:22:39;98639.28;;;11.51;85.21
32733;BME280;11867;51.198;11.966;2023-04-01T02:23:45;98639.94;;;11.48;85.19
32733;BME280;11867;51.198;11.966;2023-04-01T02:24:49;98636.78;;;11.37;85.80
32733;BME280;11867;51.198;11.966;2023-04-01T02:25:52;98633.00;;;11.21;86.05
32733;BME280;11867;51.198;11.966;2023-04-01T02:26:54;98638.47;;;11.21;86.66
32733;BME280;11867;51.198;11.966;2023-04-01T02:27:58;98645.34;;;11.27;86.45
32733;BME280;11867;51.198;11.966;2023-04-01T02:29:02;98640.13;;;11.04;87.00
32733;BME280;11867;51.198;11.966;2023-04-01T02:30:07;98637.97;;;11.19;86.82
32733;BME280;11867;51.198;11.966;2023-04-01T02:31:09;98635.56;;;11.17;86.39
32733;BME280;11867;51.198;11.966;2023-04-01T02:32:13;98639.78;;;10.97;87.22
32733;BME280;11867;51.198;11.966;2023-04-01T02:33:16;98637.38;;;11.04;87.33
32733;BME280;11867;51.198;11.966;2023-04-01T02:34:19;98645.69;;;11.17;87.13
32733;BME280;11867;51.198;11.966;2023-04-01T02:35:22;98641.47;;;11.28;86.30
32733;BME280;11867;51.198;11.966;2023-04-01T02:36:24;98648.22;;;11.22;86.31
32733;BME280;11867;51.198;11.966;2023-04-01T02:37:27;98634.44;;;11.27;86.29
32733;BME280;11867;51.198;11.966;2023-04-01T02:38:30;98640.78;;;10.93;87.43
32733;BME280;11867;51.198;11.966;2023-04-01T02:39:31;98652.84;;;10.74;89.10
32733;BME280;11867;51.198;11.966;2023-04-01T02:40:45;98650.09;;;10.92;88.21
32733;BME280;11867;51.198;11.966;2023-04-01T02:41:47;98649.28;;;11.00;87.98
32733;BME280;11867;51.198;11.966;2023-04-01T02:42:49;98654.69;;;11.08;87.06
32733;BME280;11867;51.198;11.966;2023-04-01T02:43:52;98652.97;;;10.86;87.77
32733;BME280;11867;51.198;11.966;2023-04-01T02:44:54;98651.84;;;10.96;87.74
32733;BME280;11867;51.198;11.966;2023-04-01T02:45:56;98651.16;;;11.17;87.00
32733;BME280;11867;51.198;11.966;2023-04-01T02:46:58;98650.88;;;11.01;87.35
32733;BME280;11867;51.198;11.966;2023-04-01T02:48:00;98660.31;;;11.12;87.09
32733;BME280;11867;51.198;11.966;2023-04-01T02:49:03;98651.63;;;11.19;86.60
32733;BME280;11867;51.198;11.966;2023-04-01T02:50:07;98663.16;;;11.16;87.01
32733;BME280;11867;51.198;11.966;2023-04-01T02:51:09;98653.91;;;11.08;86.92
32733;BME280;11867;51.198;11.966;2023-04-01T02:52:11;98656.75;;;11.11;86.86
32733;BME280;11867;51.198;11.966;2023-04-01T02:53:14;98654.78;;;11.29;86.17
32733;BME280;11867;51.198;11.966;2023-04-01T02:54:17;98659.09;;;11.39;85.71
32733;BME280;11867;51.198;11.966;2023-04-01T02:55:19;98653.88;;;11.17;85.79
32733;BME280;11867;51.198;11.966;2023-04-01T02:56:21;98653.81;;;11.34;85.83
32733;BME280;11867;51.198;11.966;2023-04-01T02:57:23;98652.94;;;10.95;86.84
32733;BME280;11867;51.198;11.966;2023-04-01T02:58:26;98652.47;;;11.02;86.73
32733;BME280;11867;51.198;11.966;2023-04-01T02:59:27;98656.28;;;11.09;86.49
32733;BME280;11867;51.198;11.966;2023-04-01T03:00:30;98651.63;;;11.19;85.77
32733;BME280;11867;51.198;11.966;2023-04-01T03:01:32;98659.63;;;11.24;86.02
32733;BME280;11867;51.198;11.966;2023-04-01T03:02:34;98657.47;;;10.82;87.25
32733;BME280;11867;51.198;11.966;2023-04-01T03:03:38;98650.38;;;10.99;87.04
32733;BME280;11867;51.198;11.966;2023-04-01T03:04:40;98649.53;;;11.16;86.62
32733;BME280;11867;51.198;11.966;2023-04-01T03:05:42;98659.63;;;11.24;85.73
32733;BME280;11867;51.198;11.966;2023-04-01T03:06:44;98664.00;;;11.07;86.25
32733;BME280;11867;51.198;11.966;2023-04-01T03:07:46;98666.56;;;11.13;86.19
32733;BME280;11867;51.198;11.966;2023-04-01T03:08:50;98661.41;;;11.20;86.05
32733;BME280;11867;51.198;11.966;2023-04-01T03:09:55;98669.06;;;11.26;85.95
32733;BME280;11867;51.198;11.966;2023-04-01T03:10:58;98662.44;;;11.45;85.58
32733;BME280;11867;51.198;11.966;2023-04-01T03:12:01;98660.63;;;11.58;84.74
32733;BME280;11867;51.198;11.966;2023-04-01T03:13:03;98663.00;;;11.59;84.38
32733;BME280;11867;51.198;11.966;2023-04-01T03:14:05;98666.44;;;11.47;84.74
32733;BME280;11867;51.198;11.966;2023-04-01T03:15:09;98652.69;;;11.35;85.19
32733;BME280;11867;51.198;11.966;2023-04-01T03:16:12;98664.00;;;11.07;86.62
32733;BME280;11867;51.198;11.966;2023-04-01T03:17:15;98661.34;;;11.28;85.90
32733;BME280;11867;51.198;11.966;2023-04-01T03:18:17;98660.75;;;11.23;85.66
32733;BME280;11867;51.198;11.966;2023-04-01T03:19:19;98659.50;;;11.11;86.37
32733;BME280;11867;51.198;11.966;2023-04-01T03:20:21;98658.22;;;11.09;86.50
32733;BME280;11867;51.198;11.966;2023-04-01T03:21:24;98662.47;;;10.72;88.08
32733;BME280;11867;51.198;11.966;2023-04-01T03:22:25;98662.00;;;10.69;88.50
32733;BME280;11867;51.198;11.966;2023-04-01T03:23:28;98664.88;;;10.82;88.32
32733;BME280;11867;51.198;11.966;2023-04-01T03:24:31;98665.78;;;10.95;87.83
32733;BME280;11867;51.198;11.966;2023-04-01T03:25:33;98668.03;;;11.01;87.35
32733;BME280;11867;51.198;11.966;2023-04-01T03:26:35;98658.72;;;11.02;87.00
32733;BME280;11867;51.198;11.966;2023-04-01T03:27:38;98662.56;;;11.10;86.75
32733;BME280;11867;51.198;11.966;2023-04-01T03:28:40;98652.13;;;11.12;86.48
32733;BME280;11867;51.198;11.966;2023-04-01T03:29:42;98660.91;;;11.18;85.99
32733;BME280;11867;51.198;11.966;2023-04-01T03:30:44;98659.88;;;10.84;87.26
32733;BME280;11867;51.198;11.966;2023-04-01T03:31:46;98664.69;;;10.78;88.00
32733;BME280;11867;51.198;11.966;2023-04-01T03:32:48;98665.63;;;11.00;87.72
32733;BME280;11867;51.198;11.966;2023-04-01T03:33:50;98661.59;;;11.15;86.87
32733;BME280;11867;51.198;11.966;2023-04-01T03:34:52;98666.38;;;11.18;86.47
32733;BME280;11867;51.198;11.966;2023-04-01T03:35:55;98663.97;;;11.25;86.14
32733;BME280;11867;51.198;11.966;2023-04-01T03:36:57;98664.56;;;11.39;85.59
32733;BME280;11867;51.198;11.966;2023-04-01T03:38:00;98661.03;;;11.30;85.09
32733;BME280;11867;51.198;11.966;2023-04-01T03:39:01;98660.63;;;11.10;85.93
32733;BME280;11867;51.198;11.966;2023-04-01T03:40:07;98656.00;;;11.02;86.54
32733;BME280;11867;51.198;11.966;2023-04-01T03:41:12;98666.00;;;10.72;88.12
32733;BME280;11867;51.198;11.966;2023-04-01T03:42:14;98667.88;;;10.89;87.74
32733;BME280;11867;51.198;11.966;2023-04-01T03:43:16;98665.16;;;10.89;87.40
32733;BME280;11867;51.198;11.966;2023-04-01T03:44:19;98667.25;;;10.92;87.10
32733;BME280;11867;51.198;11.966;2023-04-01T03:45:20;98666.56;;;11.13;86.65
32733;BME280;11867;51.198;11.966;2023-04-01T03:46:23;98661.34;;;11.28;85.43
32733;BME280;11867;51.198;11.966;2023-04-01T03:47:24;98670.50;;;11.32;85.23
32733;BME280;11867;51.198;11.966;2023-04-01T03:48:27;98663.13;;;11.24;84.79
32733;BME280;11867;51.198;11.966;2023-04-01T03:49:29;98662.91;;;10.91;86.48
32733;BME280;11867;51.198;11.966;2023-04-01T03:50:34;98671.72;;;10.97;86.77
32733;BME280;11867;51.198;11.966;2023-04-01T03:51:36;98674.75;;;11.13;86.26
32733;BME280;11867;51.198;11.966;2023-04-01T03:52:38;98669.09;;;11.18;85.73
32733;BME280;11867;51.198;11.966;2023-04-01T03:53:40;98671.66;;;11.23;85.27
32733;BME280;11867;51.198;11.966;2023-04-01T03:54:42;98666.34;;;11.35;84.91
32733;BME280;11867;51.198;11.966;2023-04-01T03:55:45;98671.44;;;11.45;84.43
32733;BME280;11867;51.198;11.966;2023-04-01T03:56:48;98676.88;;;11.45;84.11
32733;BME280;11867;51.198;11.966;2023-04-01T03:57:49;98668.25;;;11.35;84.50
32733;BME280;11867;51.198;11.966;2023-04-01T03:58:52;98671.44;;;11.45;84.11
32733;BME280;11867;51.198;11.966;2023-04-01T03:59:53;98674.16;;;11.45;84.10
32733;BME280;11867;51.198;11.966;2023-04-01T04:00:56;98669.19;;;11.39;84.34
32733;BME280;11867;51.198;11.966;2023-04-01T04:01:57;98672.44;;;11.32;84.42
32733;BME280;11867;51.198;11.966;2023-04-01T04:03:00;98671.59;;;10.84;86.43
32733;BME280;11867;51.198;11.966;2023-04-01T04:04:02;98672.06;;;10.86;86.69
32733;BME280;11867;51.198;11.966;2023-04-01T04:05:05;98667.19;;;11.09;86.10
32733;BME280;11867;51.198;11.966;2023-04-01T04:06:10;98667.84;;;11.15;85.58
32733;BME280;11867;51.198;11.966;2023-04-01T04:07:13;98671.47;;;11.28;85.11
32733;BME280;11867;51.198;11.966;2023-04-01T04:08:15;98675.34;;;11.27;84.88
32733;BME280;11867;51.198;11.966;2023-04-01T04:09:17;98675.97;;;11.24;85.17
32733;BME280;11867;51.198;11.966;2023-04-01T04:10:19;98678.44;;;11.17;85.44
32733;BME280;11867;51.198;11.966;2023-04-01T04:11:24;98668.47;;;11.21;85.34
32733;BME280;11867;51.198;11.966;2023-04-01T04:12:27;98678.13;;;11.01;85.76
32733;BME280;11867;51.198;11.966;2023-04-01T04:13:29;98665.78;;;11.03;85.70
32733;BME280;11867;51.198;11.966;2023-04-01T04:14:31;98676.69;;;11.12;85.95
32733;BME280;11867;51.198;11.966;2023-04-01T04:15:33;98679.84;;;11.23;84.94
32733;BME280;11867;51.198;11.966;2023-04-01T04:16:35;98677.81;;;11.02;85.87
32733;BME280;11867;51.198;11.966;2023-04-01T04:17:38;98677.97;;;11.06;86.00
32733;BME280;11867;51.198;11.966;2023-04-01T04:18:40;98672.47;;;11.23;85.33
32733;BME280;11867;51.198;11.966;2023-04-01T04:19:43;98679.28;;;10.91;85.82
32733;BME280;11867;51.198;11.966;2023-04-01T04:20:45;98679.44;;;10.95;86.15
32733;BME280;11867;51.198;11.966;2023-04-01T04:21:49;98671.28;;;10.51;87.91
32733;BME280;11867;51.198;11.966;2023-04-01T04:22:52;98679.94;;;10.53;88.57
32733;BME280;11867;51.198;11.966;2023-04-01T04:23:53;98674.81;;;10.60;88.05
32733;BME280;11867;51.198;11.966;2023-04-01T04:24:56;98683.31;;;10.33;89.25
32733;BME280;11867;51.198;11.966;2023-04-01T04:25:59;98682.97;;;10.25;89.25
32733;BME280;11867;51.198;11.966;2023-04-01T04:27:04;98682.97;;;10.25;90.45
32733;BME280;11867;51.198;11.966;2023-04-01T04:28:07;98679.78;;;10.41;89.94
32733;BME280;11867;51.198;11.966;2023-04-01T04:29:08;98676.59;;;10.65;88.86
32733;BME280;11867;51.198;11.966;2023-04-01T04:30:11;98671.78;;;10.62;88.21
32733;BME280;11867;51.198;11.966;2023-04-01T04:31:18;98683.31;;;10.59;88.57
32733;BME280;11867;51.198;11.966;2023-04-01T04:32:21;98679.47;;;10.60;88.41
32733;BME280;11867;51.198;11.966;2023-04-01T04:33:23;98677.69;;;10.81;87.71
32733;BME280;11867;51.198;11.966;2023-04-01T04:34:26;98680.56;;;10.85;86.90
32733;BME280;11867;51.198;11.966;2023-04-01T04:35:28;98674.63;;;10.92;87.18
32733;BME280;11867;51.198;11.966;2023-04-01T04:36:31;98684.72;;;10.91;86.86
32733;BME280;11867;51.198;11.966;2023-04-01T04:37:33;98686.19;;;10.80;86.86
32733;BME280;11867;51.198;11.966;2023-04-01T04:38:35;98688.59;;;10.90;86.31
32733;BME280;11867;51.198;11.966;2023-04-01T04:39:37;98681.88;;;10.70;86.68
32733;BME280;11867;51.198;11.966;2023-04-01T04:40:40;98685.56;;;10.65;86.62
32733;BME280;11867;51.198;11.966;2023-04-01T04:41:42;98684.56;;;10.79;86.45
32733;BME280;11867;51.198;11.966;2023-04-01T04:42:46;98679.94;;;10.70;86.60
32733;BME280;11867;51.198;11.966;2023-04-01T04:43:50;98685.84;;;10.90;86.36
32733;BME280;11867;51.198;11.966;2023-04-01T04:44:53;98686.00;;;10.85;86.45
32733;BME280;11867;51.198;11.966;2023-04-01T04:45:54;98689.25;;;10.61;86.66
32733;BME280;11867;51.198;11.966;2023-04-01T04:46:57;98688.59;;;10.64;87.02
32733;BME280;11867;51.198;11.966;2023-04-01T04:47:59;98687.00;;;10.72;86.85
32733;BME280;11867;51.198;11.966;2023-04-01T04:49:01;98681.38;;;10.77;86.56
32733;BME280;11867;51.198;11.966;2023-04-01T04:50:05;98680.56;;;10.85;86.49
32733;BME280;11867;51.198;11.966;2023-04-01T04:51:07;98682.81;;;10.83;86.54
32733;BME280;11867;51.198;11.966;2023-04-01T04:52:09;98685.06;;;10.81;86.21
32733;BME280;11867;51.198;11.966;2023-04-01T04:53:11;98675.47;;;10.57;86.89
32733;BME280;11867;51.198;11.966;2023-04-01T04:54:14;98694.22;;;10.59;87.31
32733;BME280;11867;51.198;11.966;2023-04-01T04:55:15;98694.69;;;10.78;86.83
32733;BME280;11867;51.198;11.966;2023-04-01T04:56:18;98692.78;;;10.61;87.05
32733;BME280;11867;51.198;11.966;2023-04-01T04:57:29;98689.06;;;10.31;87.94
32733;BME280;11867;51.198;11.966;2023-04-01T04:58:33;98692.13;;;10.47;87.76
32733;BME280;11867;51.198;11.966;2023-04-01T04:59:35;98688.44;;;10.60;87.23
32733;BME280;11867;51.198;11.966;2023-04-01T05:00:38;98690.03;;;10.79;86.64
32733;BME280;11867;51.198;11.966;2023-04-01T05:01:40;98687.63;;;10.86;86.24
32733;BME280;11867;51.198;11.966;2023-04-01T05:02:42;98689.72;;;10.98;85.33
32733;BME280;11867;51.198;11.966;2023-04-01T05:03:45;98694.34;;;11.06;85.21
32733;BME280;11867;51.198;11.966;2023-04-01T05:04:48;98694.81;;;10.99;85.22
32733;BME280;11867;51.198;11.966;2023-04-01T05:05:50;98693.03;;;11.03;85.12
32733;BME280;11867;51.198;11.966;2023-04-01T05:06:52;98687.47;;;11.00;85.18
32733;BME280;11867;51.198;11.966;2023-04-01T05:07:54;98696.25;;;11.05;85.01
32733;BME280;11867;51.198;11.966;2023-04-01T05:08:57;98688.03;;;11.23;84.63
32733;BME280;11867;51.198;11.966;2023-04-01T05:09:59;98691.41;;;11.20;84.61
32733;BME280;11867;51.198;11.966;2023-04-01T05:11:02;98692.16;;;11.38;84.43
32733;BME280;11867;51.198;11.966;2023-04-01T05:12:04;98693.22;;;11.54;83.46
32733;BME280;11867;51.198;11.966;2023-04-01T05:13:07;98694.69;;;11.51;83.47
32733;BME280;11867;51.198;11.966;2023-04-01T05:14:13;98697.91;;;11.45;83.65
32733;BME280;11867;51.198;11.966;2023-04-01T05:15:16;98699.06;;;11.35;83.22
32733;BME280;11867;51.198;11.966;2023-04-01T05:16:19;98698.25;;;11.43;83.18
32733;BME280;11867;51.198;11.966;2023-04-01T05:17:22;98705.59;;;11.51;83.20
32733;BME280;11867;51.198;11.966;2023-04-01T05:18:24;98698.25;;;11.43;83.45
32733;BME280;11867;51.198;11.966;2023-04-01T05:19:26;98700.03;;;11.39;83.59
32733;BME280;11867;51.198;11.966;2023-04-01T05:20:28;98698.38;;;11.56;83.72
32733;BME280;11867;51.198;11.966;2023-04-01T05:21:31;98698.66;;;11.63;83.06
32733;BME280;11867;51.198;11.966;2023-04-01T05:22:33;98710.00;;;11.74;82.84
32733;BME280;11867;51.198;11.966;2023-04-01T05:23:36;98706.88;;;11.93;82.02
32733;BME280;11867;51.198;11.966;2023-04-01T05:24:37;98709.13;;;11.90;83.15
32733;BME280;11867;51.198;11.966;2023-04-01T05:25:40;98704.81;;;11.89;81.78
32733;BME280;11867;51.198;11.966;2023-04-01T05:26:41;98712.22;;;11.89;81.41
32733;BME280;11867;51.198;11.966;2023-04-01T05:27:44;98706.63;;;11.77;81.37
32733;BME280;11867;51.198;11.966;2023-04-01T05:28:46;98714.97;;;11.80;81.45
32733;BME280;11867;51.198;11.966;2023-04-01T05:29:50;98706.16;;;11.75;81.89
32733;BME280;11867;51.198;11.966;2023-04-01T05:30:51;98704.50;;;11.91;82.42
32733;BME280;11867;51.198;11.966;2023-04-01T05:31:54;98708.16;;;11.95;82.19
32733;BME280;11867;51.198;11.966;2023-04-01T05:32:56;98705.28;;;11.91;82.00
32733;BME280;11867;51.198;11.966;2023-04-01T05:33:58;98709.50;;;11.80;81.20
32733;BME280;11867;51.198;11.966;2023-04-01T05:35:00;98716.47;;;11.60;82.57
32733;BME280;11867;51.198;11.966;2023-04-01T05:36:07;98713.16;;;11.46;82.47
32733;BME280;11867;51.198;11.966;2023-04-01T05:37:09;98714.00;;;11.38;82.75